Terminal Aerodrome Forecast
Issued by NWS Wilmington, NC

Home | Current Version | Previous Version | Text Only | Print | Product List | Glossary On
Versions: 1 2 3 4 5 6 7 8 9 10 11 12 13 14 15 16 17 18 19 20 21 22
000
FTUS42 KILM 291725
TAFLBT
TAF
KLBT 291725Z 2918/3018 03010KT P6SM SCT035 SCT070
     FM300000 06003KT P6SM SCT060 SCT120
     FM300900 02003KT 5SM BR BKN008
     FM301330 04008KT P6SM SCT020 SCT180=

USA.gov is the U.S. government's official web portal to all federal, state and local government web resources and services.